Terminal Aerodrome Forecast
Issued by NWS

Home | Current Version | Previous Version | Graphics & Text | Print | Product List | Glossary On
Versions: 1 2 3 4 5 6 7 8 9 10 11 12 13 14 15 16 17 18 19 20 21
000
FTUS43 KIWX 200500
TAFSBN
TAF
KSBN 200534Z 2006/2106 23006KT P6SM SCT030
      TEMPO 2009/2013 5SM BR
     FM201400 27010KT P6SM SCT030
     FM210000 VRB03KT P6SM SCT100=

USA.gov is the U.S. government's official web portal to all federal, state and local government web resources and services.